Time;durP1;ratioP1;P1;durP2;ratioP2;P2;SDS_P1;SDS_P2;PMS_P1;PMS_P2;Temp;Humidity;BMP_temperature;BMP_pressure;BME280_temperature;BME280_humidity;BME280_pressure;Samples;Min_cycle;Max_cycle;Signal;HPM_P1;HPM_P2
2021/01/16 00:00:53;;;;;;;10.55;5.40;;;2.60;99.90;;;;;;5073732;28;20245;-71
2021/01/16 00:03:20;;;;;;;14.63;5.40;;;2.50;99.90;;;;;;5073539;28;20203;-72
2021/01/16 00:05:47;;;;;;;12.20;5.65;;;2.50;99.90;;;;;;5072895;28;20212;-69
2021/01/16 00:08:15;;;;;;;7.03;4.57;;;2.60;99.90;;;;;;5072675;28;20422;-70
2021/01/16 00:10:42;;;;;;;10.13;5.90;;;2.60;99.90;;;;;;5072874;28;20680;-71
2021/01/16 00:13:12;;;;;;;12.57;5.47;;;2.70;99.90;;;;;;5072868;28;20564;-70
2021/01/16 00:15:38;;;;;;;11.40;5.93;;;2.70;99.90;;;;;;5072701;28;20203;-71
2021/01/16 00:18:06;;;;;;;9.02;5.50;;;2.70;99.90;;;;;;5072793;28;20210;-70
2021/01/16 00:20:35;;;;;;;12.30;6.10;;;2.40;99.90;;;;;;5072777;28;20229;-72
2021/01/16 00:23:02;;;;;;;7.82;4.68;;;2.30;99.90;;;;;;5072359;28;20688;-71
2021/01/16 00:25:29;;;;;;;11.85;5.72;;;2.00;99.90;;;;;;5072644;28;20202;-71
2021/01/16 00:27:56;;;;;;;12.60;5.32;;;2.00;99.90;;;;;;5072549;28;20298;-70
2021/01/16 00:30:28;;;;;;;10.73;4.07;;;2.10;99.90;;;;;;5072457;28;20236;-70
2021/01/16 00:32:55;;;;;;;9.80;5.10;;;2.10;99.90;;;;;;5072814;28;20203;-71
2021/01/16 00:35:23;;;;;;;8.85;5.10;;;2.10;99.90;;;;;;5072396;28;20206;-71
2021/01/16 00:37:52;;;;;;;12.98;5.72;;;2.10;99.90;;;;;;5072266;28;20213;-71
2021/01/16 00:40:20;;;;;;;13.18;5.68;;;2.20;99.90;;;;;;5071414;28;20262;-70
2021/01/16 00:42:49;;;;;;;12.40;5.53;;;2.20;99.90;;;;;;5072703;28;20660;-70
2021/01/16 00:45:16;;;;;;;12.38;5.95;;;2.30;99.90;;;;;;5072274;28;20210;-70
2021/01/16 00:47:43;;;;;;;13.50;5.82;;;2.30;99.90;;;;;;5072289;28;20195;-70
2021/01/16 00:50:11;;;;;;;12.52;6.13;;;2.20;99.90;;;;;;5072462;28;20712;-70
2021/01/16 00:52:39;;;;;;;9.27;5.80;;;2.20;99.90;;;;;;5072886;28;20541;-70
2021/01/16 00:55:07;;;;;;;9.02;4.43;;;2.30;99.90;;;;;;5072211;28;20209;-70
2021/01/16 00:57:34;;;;;;;8.20;4.60;;;2.30;99.90;;;;;;5072140;28;20225;-70
2021/01/16 01:00:02;;;;;;;11.73;5.57;;;2.30;99.90;;;;;;5072407;28;20222;-69
2021/01/16 01:02:29;;;;;;;12.85;5.90;;;2.30;99.90;;;;;;5072486;28;20563;-70
2021/01/16 01:04:55;;;;;;;14.23;6.10;;;2.40;99.90;;;;;;5071706;28;20726;-70
2021/01/16 01:07:21;;;;;;;11.85;5.78;;;2.30;99.90;;;;;;5072093;28;20206;-70
2021/01/16 01:09:49;;;;;;;11.30;6.07;;;2.40;99.90;;;;;;5071944;28;20229;-71
2021/01/16 01:12:15;;;;;;;9.73;5.07;;;2.40;99.90;;;;;;5072372;28;20290;-71
2021/01/16 01:14:41;;;;;;;19.10;5.90;;;2.50;99.90;;;;;;5072168;28;20232;-72
2021/01/16 01:17:15;;;;;;;7.40;5.20;;;2.50;99.90;;;;;;5072119;28;20215;-71
2021/01/16 01:19:41;;;;;;;13.13;6.05;;;2.40;99.90;;;;;;5072132;28;20226;-70
2021/01/16 01:22:08;;;;;;;13.90;6.63;;;2.30;99.90;;;;;;5072632;28;20570;-71
2021/01/16 01:24:34;;;;;;;12.00;5.70;;;2.20;99.90;;;;;;5072351;28;20214;-70
2021/01/16 01:27:02;;;;;;;9.73;5.43;;;2.20;99.90;;;;;;5070592;28;20549;-70
2021/01/16 01:29:28;;;;;;;14.88;6.35;;;2.30;99.90;;;;;;5072010;28;20941;-71
2021/01/16 01:31:54;;;;;;;9.35;5.90;;;2.30;99.90;;;;;;5072251;28;20248;-72
2021/01/16 01:34:21;;;;;;;10.48;6.32;;;2.20;99.90;;;;;;5074372;28;20217;-70
2021/01/16 01:36:47;;;;;;;11.77;5.75;;;2.30;99.90;;;;;;5075893;28;20297;-70
2021/01/16 01:39:13;;;;;;;13.63;5.68;;;2.40;99.90;;;;;;5076029;28;20293;-71
2021/01/16 01:41:40;;;;;;;10.48;6.53;;;2.40;99.90;;;;;;5076326;28;20213;-70
2021/01/16 01:44:08;;;;;;;13.13;5.97;;;2.20;99.90;;;;;;5076189;28;20212;-75
2021/01/16 01:46:36;;;;;;;11.85;5.57;;;2.30;99.90;;;;;;5076246;28;20207;-73
2021/01/16 01:49:03;;;;;;;9.25;5.03;;;2.40;99.90;;;;;;5075537;28;20207;-74
2021/01/16 01:51:32;;;;;;;9.38;5.35;;;2.40;99.90;;;;;;5075842;28;20225;-74
2021/01/16 01:54:00;;;;;;;8.10;5.50;;;2.40;99.90;;;;;;5075559;28;20236;-73
2021/01/16 01:56:27;;;;;;;14.70;6.55;;;2.30;99.90;;;;;;5075148;28;20207;-73
2021/01/16 01:58:54;;;;;;;12.18;6.43;;;2.30;99.90;;;;;;5075519;28;20263;-72
2021/01/16 02:01:22;;;;;;;10.45;4.97;;;2.40;99.90;;;;;;5075648;28;20215;-72
2021/01/16 02:03:49;;;;;;;10.35;5.72;;;2.50;99.90;;;;;;5075417;28;20277;-73
2021/01/16 02:06:16;;;;;;;9.43;5.20;;;2.60;99.90;;;;;;5075106;28;20202;-72
2021/01/16 02:08:42;;;;;;;14.80;6.22;;;2.60;99.90;;;;;;5075208;28;20214;-73
2021/01/16 02:11:09;;;;;;;17.40;6.38;;;2.70;99.90;;;;;;5075085;28;20249;-73
2021/01/16 02:13:36;;;;;;;11.93;5.82;;;2.70;99.90;;;;;;5075515;28;20217;-73
2021/01/16 02:16:09;;;;;;;15.70;7.95;;;2.70;99.90;;;;;;5074687;28;20340;-74
2021/01/16 02:18:37;;;;;;;14.32;5.97;;;2.60;99.90;;;;;;5074972;28;20675;-71
2021/01/16 02:21:06;;;;;;;10.45;5.22;;;2.70;99.90;;;;;;5075030;28;20225;-73
2021/01/16 02:23:34;;;;;;;9.10;4.28;;;2.70;99.90;;;;;;5075238;28;20568;-73
2021/01/16 02:26:46;;;;;;;9.77;6.32;;;2.70;99.90;;;;;;5074792;28;20255;-76
2021/01/16 02:29:15;;;;;;;11.65;5.05;;;2.60;99.90;;;;;;5075145;28;20289;-72
2021/01/16 02:31:45;;;;;;;13.45;6.82;;;2.60;99.90;;;;;;5075502;28;20329;-72
2021/01/16 02:34:16;;;;;;;16.20;7.05;;;2.50;99.90;;;;;;5075036;28;20209;-75
2021/01/16 02:37:24;;;;;;;11.65;5.60;;;2.60;99.90;;;;;;5074561;28;20249;-72
2021/01/16 02:40:04;;;;;;;14.55;7.15;;;2.50;99.90;;;;;;5052998;28;20280;-72
2021/01/16 02:42:38;;;;;;;15.40;6.47;;;2.40;99.90;;;;;;5075002;28;20571;-73
2021/01/16 02:45:10;;;;;;;10.55;6.78;;;2.40;99.90;;;;;;5073856;28;20211;-71
2021/01/16 02:47:48;;;;;;;9.85;5.18;;;2.50;99.90;;;;;;5074685;28;20210;-71
2021/01/16 02:50:20;;;;;;;14.18;7.07;;;2.50;99.90;;;;;;5074700;28;20238;-71
2021/01/16 02:52:48;;;;;;;17.52;7.28;;;2.50;99.90;;;;;;5074739;28;20249;-70
2021/01/16 02:55:16;;;;;;;8.98;3.55;;;2.50;99.90;;;;;;5074727;28;20228;-71
2021/01/16 02:57:43;;;;;;;15.80;6.50;;;2.50;99.90;;;;;;5074230;28;20202;-73
2021/01/16 03:00:12;;;;;;;13.65;6.13;;;2.50;99.90;;;;;;5074434;28;20268;-72
2021/01/16 03:02:39;;;;;;;15.07;6.95;;;2.50;99.90;;;;;;5074429;28;20294;-70
2021/01/16 03:05:06;;;;;;;17.80;6.60;;;2.50;99.90;;;;;;5074161;28;20209;-71
2021/01/16 03:07:34;;;;;;;13.00;6.97;;;2.60;99.90;;;;;;5074262;28;20711;-71
2021/01/16 03:10:05;;;;;;;12.65;6.32;;;2.70;99.90;;;;;;5074185;28;20334;-70
2021/01/16 03:12:32;;;;;;;12.68;6.55;;;2.70;99.90;;;;;;5074370;28;20257;-69
2021/01/16 03:15:01;;;;;;;12.73;6.57;;;2.70;99.90;;;;;;5074237;28;20634;-71
2021/01/16 03:17:43;;;;;;;15.68;7.25;;;2.70;99.90;;;;;;5074158;28;20541;-70
2021/01/16 03:20:12;;;;;;;13.43;6.50;;;2.60;99.90;;;;;;5074131;28;20322;-69
2021/01/16 03:22:38;;;;;;;12.30;5.00;;;2.60;99.90;;;;;;5074235;28;20633;-70
2021/01/16 03:25:06;;;;;;;11.55;5.60;;;2.60;99.90;;;;;;5074037;28;20206;-70
2021/01/16 03:27:32;;;;;;;13.90;6.88;;;2.50;99.90;;;;;;5073582;28;20214;-71
2021/01/16 03:29:58;;;;;;;16.13;7.05;;;2.50;99.90;;;;;;5073751;28;20226;-70
2021/01/16 03:32:25;;;;;;;11.00;6.45;;;2.50;99.90;;;;;;5073998;28;20207;-69
2021/01/16 03:34:53;;;;;;;16.00;6.68;;;2.60;99.90;;;;;;5073583;28;20309;-70
2021/01/16 03:37:20;;;;;;;11.60;5.18;;;2.50;99.90;;;;;;5073739;28;20674;-71
2021/01/16 03:39:47;;;;;;;14.38;6.75;;;2.60;99.90;;;;;;5073822;28;20228;-72
2021/01/16 03:42:13;;;;;;;12.65;6.10;;;2.50;99.90;;;;;;5073590;28;20546;-71
2021/01/16 03:44:40;;;;;;;15.57;6.00;;;2.50;99.90;;;;;;5073452;28;20608;-73
2021/01/16 03:47:06;;;;;;;13.95;6.35;;;2.50;99.90;;;;;;5073373;28;20298;-71
2021/01/16 03:49:33;;;;;;;12.85;5.53;;;2.50;99.90;;;;;;5073270;28;20229;-71
2021/01/16 03:52:00;;;;;;;11.95;6.40;;;2.50;99.90;;;;;;5073557;28;20336;-72
2021/01/16 03:54:27;;;;;;;15.82;6.28;;;2.60;99.90;;;;;;5073662;28;20669;-74
2021/01/16 03:56:53;;;;;;;14.02;6.35;;;2.60;99.90;;;;;;5073516;28;20277;-74
2021/01/16 03:59:20;;;;;;;17.67;5.85;;;2.60;99.90;;;;;;5073205;28;20209;-75
2021/01/16 04:01:46;;;;;;;12.90;5.93;;;2.60;99.90;;;;;;5073692;28;20213;-77
2021/01/16 04:04:13;;;;;;;13.20;6.70;;;2.80;99.90;;;;;;5073469;28;20739;-74
2021/01/16 04:06:39;;;;;;;12.15;6.15;;;2.70;99.90;;;;;;5073104;28;20294;-74
2021/01/16 04:09:06;;;;;;;13.27;5.28;;;2.70;99.90;;;;;;5073211;28;20206;-75
2021/01/16 04:11:33;;;;;;;13.73;5.88;;;2.80;99.90;;;;;;5072854;28;20382;-76
2021/01/16 04:14:00;;;;;;;13.93;7.28;;;2.70;99.90;;;;;;5073009;28;20228;-75
2021/01/16 04:16:27;;;;;;;15.70;7.13;;;2.70;99.90;;;;;;5073150;28;20289;-75
2021/01/16 04:18:53;;;;;;;13.25;6.60;;;2.60;99.90;;;;;;5072833;28;20203;-75
2021/01/16 04:21:22;;;;;;;15.73;6.72;;;2.60;99.90;;;;;;5073544;28;20649;-74
2021/01/16 04:23:48;;;;;;;17.30;6.55;;;2.60;99.90;;;;;;5073290;28;20229;-73
2021/01/16 04:26:16;;;;;;;16.13;6.75;;;2.50;99.90;;;;;;5073109;28;20214;-76
2021/01/16 04:28:42;;;;;;;12.35;5.55;;;2.60;99.90;;;;;;5073169;28;20302;-78
2021/01/16 04:31:09;;;;;;;10.45;5.90;;;2.50;99.90;;;;;;5072964;28;20319;-76
2021/01/16 04:33:36;;;;;;;14.30;6.53;;;2.40;99.90;;;;;;5073794;28;20257;-78
2021/01/16 04:36:06;;;;;;;14.85;7.82;;;2.30;99.90;;;;;;5072929;28;20684;-75
2021/01/16 04:38:32;;;;;;;10.73;4.97;;;2.30;99.90;;;;;;5072803;28;20728;-74
2021/01/16 04:40:59;;;;;;;12.80;5.40;;;2.30;99.90;;;;;;5072515;28;20344;-74
2021/01/16 04:43:26;;;;;;;10.02;6.07;;;2.30;99.90;;;;;;5072490;28;20623;-74
2021/01/16 04:46:00;;;;;;;14.02;6.25;;;2.20;99.90;;;;;;5072381;28;20228;-74
2021/01/16 04:48:28;;;;;;;13.43;5.95;;;2.20;99.90;;;;;;5072794;28;20248;-72
2021/01/16 04:50:59;;;;;;;13.93;5.35;;;2.20;99.90;;;;;;5072321;28;20626;-74
2021/01/16 04:53:36;;;;;;;15.60;6.88;;;2.20;99.90;;;;;;5072439;28;20203;-74
2021/01/16 04:56:04;;;;;;;17.60;6.85;;;2.30;99.90;;;;;;5072083;28;20209;-75
2021/01/16 04:58:33;;;;;;;11.85;5.22;;;2.30;99.90;;;;;;5072726;28;20211;-74
2021/01/16 05:01:04;;;;;;;11.02;6.30;;;2.40;99.90;;;;;;5072391;28;20215;-73
2021/01/16 05:03:37;;;;;;;15.60;6.35;;;2.40;99.90;;;;;;5072662;28;20207;-72
2021/01/16 05:06:07;;;;;;;15.40;6.57;;;2.40;99.90;;;;;;5073318;28;20662;-73
2021/01/16 05:08:35;;;;;;;12.57;6.40;;;2.50;99.90;;;;;;5075093;28;20213;-72
2021/01/16 05:11:06;;;;;;;14.07;6.47;;;2.50;99.90;;;;;;5079245;28;20237;-75
2021/01/16 05:13:42;;;;;;;9.85;6.07;;;2.60;99.90;;;;;;5081380;28;20206;-74
2021/01/16 05:16:12;;;;;;;10.88;4.80;;;2.60;99.90;;;;;;5079773;28;20202;-76
2021/01/16 05:18:41;;;;;;;16.13;6.90;;;2.50;99.90;;;;;;5079498;28;20575;-74
2021/01/16 05:21:09;;;;;;;16.50;6.43;;;2.40;99.90;;;;;;5079885;28;20309;-75
2021/01/16 05:23:41;;;;;;;8.65;5.43;;;2.40;99.90;;;;;;5080045;28;20202;-74
2021/01/16 05:26:08;;;;;;;18.20;9.07;;;2.40;99.90;;;;;;5079162;28;20610;-73
2021/01/16 05:28:35;;;;;;;11.77;6.60;;;2.40;99.90;;;;;;5079189;28;20207;-73
2021/01/16 05:31:03;;;;;;;14.95;7.03;;;2.40;99.90;;;;;;5078436;28;20227;-75
2021/01/16 05:33:31;;;;;;;15.13;6.63;;;2.40;99.90;;;;;;5079520;28;20207;-74
2021/01/16 05:35:59;;;;;;;15.65;6.82;;;2.40;99.90;;;;;;5078757;28;20680;-74
2021/01/16 05:38:28;;;;;;;14.48;7.10;;;2.40;99.90;;;;;;5079189;28;20202;-74
2021/01/16 05:40:56;;;;;;;12.93;6.38;;;2.50;99.90;;;;;;5078668;28;20222;-75
2021/01/16 05:43:23;;;;;;;13.57;6.10;;;2.50;99.90;;;;;;5079048;28;20210;-75
2021/01/16 05:45:52;;;;;;;13.65;6.32;;;2.60;99.90;;;;;;5078392;28;20207;-75
2021/01/16 05:48:19;;;;;;;11.25;5.45;;;2.50;99.90;;;;;;5078959;28;20206;-74
2021/01/16 05:50:47;;;;;;;8.88;5.70;;;2.40;99.90;;;;;;5078457;28;20226;-74
2021/01/16 05:53:13;;;;;;;12.82;6.35;;;2.40;99.90;;;;;;5078870;28;20214;-73
2021/01/16 05:55:42;;;;;;;14.68;5.13;;;2.40;99.90;;;;;;5078320;28;20626;-74
2021/01/16 05:58:09;;;;;;;13.50;5.60;;;2.40;99.90;;;;;;5080639;28;20683;-69
2021/01/16 06:00:37;;;;;;;11.85;6.20;;;2.50;99.90;;;;;;5080058;28;20313;-69
2021/01/16 06:03:06;;;;;;;14.32;7.03;;;2.40;99.90;;;;;;5080093;28;20199;-70
2021/01/16 06:05:34;;;;;;;16.25;6.50;;;2.30;99.90;;;;;;5080021;28;20268;-70
2021/01/16 06:08:01;;;;;;;15.32;6.78;;;2.30;99.90;;;;;;5080034;28;20293;-69
2021/01/16 06:10:34;;;;;;;12.30;6.25;;;2.30;99.90;;;;;;5079990;28;20218;-69
2021/01/16 06:13:13;;;;;;;14.00;6.70;;;2.30;99.90;;;;;;5080513;28;20236;-69
2021/01/16 06:15:44;;;;;;;12.48;7.43;;;2.40;99.90;;;;;;5080078;28;20207;-70
2021/01/16 06:18:28;;;;;;;10.73;6.00;;;2.30;99.90;;;;;;5080248;28;20290;-69
2021/01/16 06:20:56;;;;;;;10.98;5.35;;;2.30;99.90;;;;;;5076045;28;20229;-69
2021/01/16 06:23:23;;;;;;;16.95;8.43;;;2.30;99.90;;;;;;5076577;28;20206;-69
2021/01/16 06:25:53;;;;;;;12.00;6.15;;;2.20;99.90;;;;;;5076555;28;20610;-68
2021/01/16 06:28:22;;;;;;;9.70;5.05;;;2.10;99.90;;;;;;5076575;28;20289;-68
2021/01/16 06:30:53;;;;;;;7.97;4.75;;;2.10;99.90;;;;;;5076875;28;20223;-69
2021/01/16 06:33:26;;;;;;;10.05;6.93;;;2.20;99.90;;;;;;5076839;28;20207;-69
2021/01/16 06:35:57;;;;;;;11.40;4.63;;;2.20;99.90;;;;;;5076236;28;20289;-69
2021/01/16 06:38:33;;;;;;;14.13;6.93;;;2.30;99.90;;;;;;5076360;28;20209;-69
2021/01/16 06:41:15;;;;;;;12.85;7.00;;;2.10;99.90;;;;;;5076607;28;20225;-69
2021/01/16 06:43:44;;;;;;;14.60;6.53;;;2.10;99.90;;;;;;5076537;28;20207;-69
2021/01/16 06:46:12;;;;;;;11.73;6.07;;;2.00;99.90;;;;;;5076245;28;20734;-69
2021/01/16 06:48:42;;;;;;;19.70;6.85;;;2.10;99.90;;;;;;5076293;28;20207;-69
2021/01/16 06:51:11;;;;;;;12.23;7.43;;;2.10;99.90;;;;;;5076117;28;20587;-69
2021/01/16 06:53:38;;;;;;;13.18;6.32;;;2.10;99.90;;;;;;5075973;28;20206;-69
2021/01/16 06:56:06;;;;;;;16.85;7.60;;;2.00;99.90;;;;;;5075883;28;20209;-69
2021/01/16 06:58:39;;;;;;;14.93;6.80;;;2.20;99.90;;;;;;5076481;28;20206;-69
2021/01/16 07:01:08;;;;;;;12.95;5.80;;;2.10;99.90;;;;;;5076253;28;20229;-69
2021/01/16 07:03:49;;;;;;;17.20;6.93;;;2.20;99.90;;;;;;5076021;28;20214;-69
2021/01/16 07:06:17;;;;;;;13.20;5.88;;;2.30;99.90;;;;;;5075691;28;20206;-69
2021/01/16 07:08:43;;;;;;;17.17;6.38;;;2.20;99.90;;;;;;5076199;28;20199;-69
2021/01/16 07:11:11;;;;;;;15.57;5.57;;;2.30;99.90;;;;;;5076113;28;20645;-69
2021/01/16 07:13:38;;;;;;;13.73;7.00;;;2.40;99.90;;;;;;5075542;28;20641;-69
2021/01/16 07:16:06;;;;;;;14.48;7.88;;;2.40;99.90;;;;;;5075298;28;20207;-69
2021/01/16 07:18:33;;;;;;;18.30;7.22;;;2.50;99.90;;;;;;5075711;28;20657;-68
2021/01/16 07:21:01;;;;;;;12.20;6.43;;;2.50;99.90;;;;;;5075859;28;20229;-69
2021/01/16 07:23:28;;;;;;;10.52;6.10;;;2.50;99.90;;;;;;5075417;28;20211;-69
2021/01/16 07:25:55;;;;;;;12.65;7.22;;;2.50;99.90;;;;;;5075145;28;20262;-69
2021/01/16 07:28:23;;;;;;;16.85;7.47;;;2.50;99.90;;;;;;5075584;28;20601;-69
2021/01/16 07:30:50;;;;;;;10.98;4.95;;;2.60;99.90;;;;;;5075346;28;20278;-69
2021/01/16 07:33:17;;;;;;;12.10;6.18;;;2.60;99.90;;;;;;5075388;28;20251;-69
2021/01/16 07:35:49;;;;;;;13.32;6.70;;;2.60;99.90;;;;;;5075280;28;20661;-69
2021/01/16 07:38:18;;;;;;;13.13;5.97;;;2.60;99.90;;;;;;5075524;28;20203;-69
2021/01/16 07:40:46;;;;;;;13.75;7.30;;;2.60;99.90;;;;;;5075286;28;20285;-69
2021/01/16 07:43:46;;;;;;;12.80;6.25;;;2.60;99.90;;;;;;5075365;28;20294;-69
2021/01/16 07:46:18;;;;;;;15.77;5.80;;;2.60;99.90;;;;;;5074993;28;20199;-69
2021/01/16 07:48:55;;;;;;;12.40;6.20;;;2.60;99.90;;;;;;5075379;28;20213;-69
2021/01/16 07:51:26;;;;;;;14.77;6.45;;;2.50;99.90;;;;;;5075179;28;20309;-69
2021/01/16 07:53:59;;;;;;;16.83;7.05;;;2.50;99.90;;;;;;5075225;28;20203;-69
2021/01/16 07:56:35;;;;;;;16.92;7.55;;;2.50;99.90;;;;;;5074641;28;20202;-69
2021/01/16 07:59:14;;;;;;;10.45;4.63;;;2.40;99.90;;;;;;5075091;28;20301;-69
2021/01/16 08:02:04;;;;;;;11.85;5.55;;;2.30;99.90;;;;;;5074985;28;20183;-69
2021/01/16 08:04:37;;;;;;;12.13;6.20;;;2.30;99.90;;;;;;5075044;28;20206;-69
2021/01/16 08:07:06;;;;;;;15.60;7.63;;;2.30;99.90;;;;;;5074722;28;20315;-69
2021/01/16 08:09:54;;;;;;;20.00;7.05;;;2.50;99.90;;;;;;5074987;28;20233;-69
2021/01/16 08:12:22;;;;;;;12.98;6.13;;;2.50;99.90;;;;;;5074783;28;20249;-69
2021/01/16 08:14:49;;;;;;;18.40;6.70;;;2.50;99.90;;;;;;5074728;28;20202;-69
2021/01/16 08:17:18;;;;;;;15.25;7.60;;;2.50;99.90;;;;;;5074415;28;20298;-69
2021/01/16 08:20:07;;;;;;;12.40;5.78;;;2.60;99.90;;;;;;5074375;28;20222;-69
2021/01/16 08:22:38;;;;;;;8.40;5.03;;;2.60;99.90;;;;;;5074706;28;20297;-68
2021/01/16 08:25:07;;;;;;;17.27;6.60;;;2.60;99.90;;;;;;5074631;28;20213;-69
2021/01/16 08:27:35;;;;;;;16.13;7.32;;;2.70;99.90;;;;;;5074733;28;20221;-69
2021/01/16 08:30:10;;;;;;;12.55;7.20;;;2.70;99.90;;;;;;5075687;28;20229;-69
2021/01/16 08:33:00;;;;;;;15.38;7.25;;;2.70;99.90;;;;;;5075101;28;20206;-69
2021/01/16 08:35:29;;;;;;;13.60;6.97;;;2.70;99.90;;;;;;5075735;28;20294;-69
2021/01/16 08:38:22;;;;;;;12.32;5.70;;;2.70;99.90;;;;;;5075780;28;20252;-69
2021/01/16 08:41:02;;;;;;;13.80;6.75;;;2.80;99.90;;;;;;5075650;28;20228;-69
2021/01/16 08:43:30;;;;;;;11.48;5.50;;;2.80;99.90;;;;;;5074059;28;20237;-69
2021/01/16 08:46:16;;;;;;;12.70;6.47;;;2.90;99.90;;;;;;5074002;28;20205;-69
2021/01/16 08:48:57;;;;;;;17.02;7.90;;;2.90;99.90;;;;;;5074988;28;20297;-69
2021/01/16 08:51:31;;;;;;;15.85;7.13;;;2.90;99.90;;;;;;5075569;28;20272;-69
2021/01/16 08:54:15;;;;;;;17.20;7.50;;;2.80;99.90;;;;;;5075575;28;20203;-69
2021/01/16 08:56:44;;;;;;;12.20;7.20;;;2.80;99.90;;;;;;5075274;28;20286;-69
2021/01/16 08:59:22;;;;;;;16.65;7.80;;;2.80;99.90;;;;;;5075450;28;20202;-69
2021/01/16 09:01:50;;;;;;;14.82;7.00;;;2.80;99.90;;;;;;5075461;28;20552;-69
2021/01/16 09:04:21;;;;;;;15.02;7.07;;;2.80;99.90;;;;;;5074401;28;20213;-69
2021/01/16 09:06:48;;;;;;;18.15;6.90;;;2.90;99.90;;;;;;5075305;28;20293;-69
2021/01/16 09:09:24;;;;;;;13.35;6.75;;;2.90;99.90;;;;;;5075651;28;20664;-69
2021/01/16 09:12:13;;;;;;;11.57;7.15;;;2.80;99.90;;;;;;5075421;28;20206;-69
2021/01/16 09:14:40;;;;;;;16.02;7.18;;;2.90;99.90;;;;;;5075142;28;20202;-69
2021/01/16 09:17:17;;;;;;;23.92;12.18;;;3.00;99.90;;;;;;5073648;28;20434;-69
2021/01/16 09:19:44;;;;;;;18.48;8.90;;;3.10;99.90;;;;;;5075108;28;20226;-69
2021/01/16 09:22:22;;;;;;;16.08;7.05;;;3.10;99.90;;;;;;5075939;28;20205;-69
2021/01/16 09:24:49;;;;;;;17.15;7.55;;;3.20;99.90;;;;;;5075079;28;20695;-69
2021/01/16 09:27:27;;;;;;;12.68;6.70;;;3.20;99.90;;;;;;5074921;28;20219;-69
2021/01/16 09:29:54;;;;;;;11.90;7.00;;;3.20;99.90;;;;;;5075268;28;20271;-69
2021/01/16 09:32:35;;;;;;;11.88;6.20;;;3.20;99.90;;;;;;5075983;28;20218;-70
2021/01/16 09:35:03;;;;;;;15.02;6.03;;;3.20;99.90;;;;;;5075014;28;20214;-69
2021/01/16 09:37:31;;;;;;;11.95;6.72;;;3.10;99.90;;;;;;5075103;28;20205;-69
2021/01/16 09:40:09;;;;;;;9.68;5.68;;;2.90;99.90;;;;;;5074759;28;20311;-69
2021/01/16 09:42:47;;;;;;;15.18;6.30;;;2.90;99.90;;;;;;5075069;28;20202;-69
2021/01/16 09:45:15;;;;;;;17.08;6.55;;;2.90;99.90;;;;;;5074737;28;20203;-69
2021/01/16 09:47:50;;;;;;;15.07;7.72;;;3.00;99.90;;;;;;5073563;28;20707;-69
2021/01/16 09:50:19;;;;;;;14.20;6.68;;;2.90;99.90;;;;;;5074219;28;20218;-69
2021/01/16 09:52:47;;;;;;;14.50;6.88;;;2.90;99.90;;;;;;5074794;28;20309;-69
2021/01/16 09:55:34;;;;;;;17.58;7.57;;;3.00;99.90;;;;;;5076026;28;20215;-69
2021/01/16 09:58:03;;;;;;;14.57;7.20;;;3.00;99.90;;;;;;5078031;28;20194;-70
2021/01/16 10:00:31;;;;;;;15.02;6.18;;;3.10;99.90;;;;;;5077514;28;20355;-69
2021/01/16 10:03:00;;;;;;;14.88;6.13;;;3.10;99.90;;;;;;5077462;28;20238;-69
2021/01/16 10:05:32;;;;;;;7.43;3.60;;;3.00;99.90;;;;;;5077420;28;20207;-69
2021/01/16 10:07:59;;;;;;;10.85;5.40;;;2.90;99.90;;;;;;5077069;28;20207;-69
2021/01/16 10:10:26;;;;;;;13.27;6.07;;;2.80;99.90;;;;;;5077024;28;20242;-69
2021/01/16 10:12:59;;;;;;;12.18;6.55;;;2.90;99.90;;;;;;5077233;28;20206;-69
2021/01/16 10:15:30;;;;;;;10.10;4.75;;;3.00;99.90;;;;;;5078263;28;20263;-69
2021/01/16 10:17:57;;;;;;;13.38;5.80;;;3.00;99.90;;;;;;5077548;28;20210;-69
2021/01/16 10:20:32;;;;;;;10.27;5.72;;;2.80;99.90;;;;;;5077503;28;20231;-69
2021/01/16 10:23:00;;;;;;;12.00;5.68;;;2.90;99.90;;;;;;5076892;28;20625;-69
2021/01/16 10:25:40;;;;;;;13.95;6.60;;;2.90;99.90;;;;;;5077518;28;20205;-69
2021/01/16 10:28:07;;;;;;;8.43;5.72;;;3.00;99.90;;;;;;5077695;28;20214;-69
2021/01/16 10:30:34;;;;;;;9.73;4.78;;;3.10;99.90;;;;;;5077348;28;20226;-69
2021/01/16 10:33:01;;;;;;;10.65;5.55;;;3.30;99.90;;;;;;5078511;28;20575;-69
2021/01/16 10:35:28;;;;;;;8.25;5.00;;;3.30;99.90;;;;;;5077694;28;20229;-70
2021/01/16 10:37:57;;;;;;;11.00;5.72;;;3.40;99.90;;;;;;5077509;28;20202;-69
2021/01/16 10:40:23;;;;;;;16.60;7.85;;;3.50;99.90;;;;;;5078130;28;20219;-69
2021/01/16 10:42:52;;;;;;;13.18;6.28;;;3.50;99.90;;;;;;5077660;28;20625;-70
2021/01/16 10:45:20;;;;;;;11.00;5.45;;;3.50;99.90;;;;;;5078204;28;20229;-69
2021/01/16 10:47:48;;;;;;;10.13;5.13;;;3.60;99.90;;;;;;5077778;28;20207;-69
2021/01/16 10:50:16;;;;;;;9.35;5.32;;;3.60;99.90;;;;;;5077870;28;20314;-69
2021/01/16 10:52:43;;;;;;;20.60;10.35;;;3.50;99.90;;;;;;5077398;28;20265;-69
2021/01/16 10:55:11;;;;;;;16.33;8.27;;;3.30;99.90;;;;;;5076196;28;20276;-70
2021/01/16 10:57:49;;;;;;;18.38;7.50;;;2.90;99.90;;;;;;5076096;28;20610;-69
2021/01/16 11:00:17;;;;;;;21.17;8.80;;;2.50;99.90;;;;;;5075838;28;20262;-69
2021/01/16 11:02:46;;;;;;;15.10;8.35;;;2.20;99.90;;;;;;5075912;28;20225;-69
2021/01/16 11:05:26;;;;;;;15.45;6.95;;;2.20;99.90;;;;;;5076388;28;20230;-69
2021/01/16 11:07:56;;;;;;;21.42;9.20;;;1.90;99.90;;;;;;5075346;28;20289;-69
2021/01/16 11:10:34;;;;;;;16.52;7.78;;;1.90;99.90;;;;;;5076417;28;20234;-70
2021/01/16 11:13:22;;;;;;;15.57;7.30;;;1.60;99.90;;;;;;5075442;28;20632;-69
2021/01/16 11:15:53;;;;;;;13.95;6.97;;;1.80;99.90;;;;;;5075419;28;20281;-68
2021/01/16 11:18:31;;;;;;;13.13;6.85;;;1.90;99.90;;;;;;5075624;28;20206;-69
2021/01/16 11:21:01;;;;;;;15.10;6.75;;;2.20;99.90;;;;;;5075163;28;20222;-69
2021/01/16 11:23:56;;;;;;;15.55;8.38;;;2.30;99.90;;;;;;5075472;28;20194;-69
2021/01/16 11:26:24;;;;;;;16.25;6.95;;;2.20;99.90;;;;;;5075092;28;20693;-69
2021/01/16 11:28:53;;;;;;;14.20;7.90;;;2.00;99.90;;;;;;5075850;28;20203;-69
2021/01/16 11:31:28;;;;;;;16.65;7.25;;;2.00;99.90;;;;;;5075890;28;20222;-69
2021/01/16 11:34:18;;;;;;;16.30;7.47;;;2.10;99.90;;;;;;5075381;28;20285;-69
2021/01/16 11:37:09;;;;;;;14.45;6.65;;;2.20;99.90;;;;;;5075032;28;20245;-68
2021/01/16 11:39:47;;;;;;;20.42;10.02;;;2.30;99.90;;;;;;5060145;28;20592;-69
2021/01/16 11:42:14;;;;;;;16.90;6.75;;;2.40;99.90;;;;;;5075261;28;20222;-69
2021/01/16 11:44:57;;;;;;;12.90;5.72;;;2.10;99.90;;;;;;5075371;28;20213;-69
2021/01/16 11:47:25;;;;;;;17.67;7.53;;;2.00;99.90;;;;;;5075307;28;20642;-69
2021/01/16 11:49:52;;;;;;;13.70;8.13;;;1.90;99.90;;;;;;5075229;28;20223;-69
2021/01/16 11:52:19;;;;;;;10.93;6.05;;;1.80;99.90;;;;;;5075388;28;20311;-70
2021/01/16 11:54:45;;;;;;;17.98;9.32;;;1.90;99.90;;;;;;5075996;28;20203;-70
2021/01/16 11:57:14;;;;;;;13.48;6.95;;;2.10;99.90;;;;;;5075166;28;20216;-69
2021/01/16 11:59:42;;;;;;;20.23;8.48;;;2.20;99.90;;;;;;5075366;28;20222;-70
2021/01/16 12:02:13;;;;;;;15.57;7.72;;;2.50;99.90;;;;;;5076330;28;20565;-70
2021/01/16 12:04:43;;;;;;;18.75;7.22;;;2.70;99.90;;;;;;5076809;28;20207;-70
2021/01/16 12:07:13;;;;;;;15.98;8.25;;;2.70;99.90;;;;;;5075328;28;20206;-70
2021/01/16 12:09:43;;;;;;;10.27;6.28;;;2.50;99.90;;;;;;5075336;28;20219;-70
2021/01/16 12:12:11;;;;;;;16.42;6.72;;;2.00;99.90;;;;;;5074860;28;20218;-70
2021/01/16 12:14:38;;;;;;;12.27;6.82;;;2.10;99.90;;;;;;5074774;28;20206;-70
2021/01/16 12:17:06;;;;;;;16.60;7.40;;;2.10;99.90;;;;;;5075142;28;20213;-70
2021/01/16 12:19:34;;;;;;;12.65;6.55;;;2.30;99.90;;;;;;5075260;28;20219;-69
2021/01/16 12:22:05;;;;;;;13.05;7.55;;;2.30;99.90;;;;;;5074613;28;20207;-70
2021/01/16 12:24:32;;;;;;;14.70;7.40;;;2.40;99.90;;;;;;5074430;28;20205;-70
2021/01/16 12:27:01;;;;;;;11.05;6.13;;;2.20;99.90;;;;;;5074156;28;20278;-70
2021/01/16 12:29:39;;;;;;;10.50;5.72;;;2.20;99.90;;;;;;5075263;28;20219;-69
2021/01/16 12:32:07;;;;;;;10.10;5.43;;;2.30;99.90;;;;;;5075007;28;20206;-70
2021/01/16 12:34:34;;;;;;;14.15;7.60;;;2.40;99.90;;;;;;5074339;28;20247;-70
2021/01/16 12:37:01;;;;;;;14.50;6.45;;;2.30;99.90;;;;;;5073873;28;20203;-69
2021/01/16 12:39:29;;;;;;;14.48;6.53;;;2.30;99.90;;;;;;5074716;28;20223;-69
2021/01/16 12:41:59;;;;;;;17.40;7.60;;;2.50;99.90;;;;;;5074979;28;20714;-72
2021/01/16 12:44:26;;;;;;;15.38;6.35;;;2.50;99.90;;;;;;5070914;28;20202;-72
2021/01/16 12:46:53;;;;;;;14.57;8.23;;;2.60;99.90;;;;;;5073226;28;20635;-71
2021/01/16 12:49:19;;;;;;;15.02;7.00;;;2.30;99.90;;;;;;5073142;28;20207;-72
2021/01/16 12:51:47;;;;;;;14.68;7.55;;;2.40;99.90;;;;;;5073220;28;20223;-72
2021/01/16 12:54:15;;;;;;;9.80;6.22;;;2.50;99.90;;;;;;5073387;28;20206;-72
2021/01/16 12:56:42;;;;;;;15.93;7.55;;;2.40;99.90;;;;;;5072803;28;20622;-71
2021/01/16 12:59:14;;;;;;;14.38;8.10;;;2.30;99.90;;;;;;5072654;28;20207;-72
2021/01/16 13:01:43;;;;;;;12.98;5.22;;;2.30;99.90;;;;;;5073617;28;20203;-72
2021/01/16 13:04:10;;;;;;;14.95;7.53;;;2.10;99.90;;;;;;5074847;28;20213;-76